sensor_id;sensor_type;location;lat;lon;timestamp;P1;durP1;ratioP1;P2;durP2;ratioP2
34978;SDS011;21185;50.978;13.720;2023-03-25T00:02:56;1.17;;;0.85;;
34978;SDS011;21185;50.978;13.720;2023-03-25T00:07:58;3.30;;;0.82;;
34978;SDS011;21185;50.978;13.720;2023-03-25T00:13:00;1.58;;;1.10;;
34978;SDS011;21185;50.978;13.720;2023-03-25T00:18:06;1.75;;;0.95;;
34978;SDS011;21185;50.978;13.720;2023-03-25T00:23:08;2.72;;;1.20;;
34978;SDS011;21185;50.978;13.720;2023-03-25T00:28:10;2.05;;;1.30;;
34978;SDS011;21185;50.978;13.720;2023-03-25T00:33:12;1.05;;;0.90;;
34978;SDS011;21185;50.978;13.720;2023-03-25T00:38:14;3.30;;;1.33;;
34978;SDS011;21185;50.978;13.720;2023-03-25T00:43:17;10.73;;;2.10;;
34978;SDS011;21185;50.978;13.720;2023-03-25T00:48:19;7.75;;;1.83;;
34978;SDS011;21185;50.978;13.720;2023-03-25T00:53:20;2.35;;;1.20;;
34978;SDS011;21185;50.978;13.720;2023-03-25T00:58:22;4.00;;;1.42;;
34978;SDS011;21185;50.978;13.720;2023-03-25T01:03:25;2.75;;;1.50;;
34978;SDS011;21185;50.978;13.720;2023-03-25T01:08:29;2.75;;;1.23;;
34978;SDS011;21185;50.978;13.720;2023-03-25T01:13:33;5.50;;;1.25;;
34978;SDS011;21185;50.978;13.720;2023-03-25T01:18:34;4.43;;;1.33;;
34978;SDS011;21185;50.978;13.720;2023-03-25T01:23:38;2.65;;;1.52;;
34978;SDS011;21185;50.978;13.720;2023-03-25T01:28:41;4.28;;;1.20;;
34978;SDS011;21185;50.978;13.720;2023-03-25T01:33:44;1.63;;;1.02;;
34978;SDS011;21185;50.978;13.720;2023-03-25T01:38:46;1.77;;;1.08;;
34978;SDS011;21185;50.978;13.720;2023-03-25T01:44:02;1.85;;;1.27;;
34978;SDS011;21185;50.978;13.720;2023-03-25T01:49:31;8.32;;;1.58;;
34978;SDS011;21185;50.978;13.720;2023-03-25T01:54:39;1.95;;;1.23;;
34978;SDS011;21185;50.978;13.720;2023-03-25T01:59:42;4.75;;;1.00;;
34978;SDS011;21185;50.978;13.720;2023-03-25T02:05:00;3.08;;;1.25;;
34978;SDS011;21185;50.978;13.720;2023-03-25T02:10:10;1.30;;;0.98;;
34978;SDS011;21185;50.978;13.720;2023-03-25T02:15:13;6.55;;;1.42;;
34978;SDS011;21185;50.978;13.720;2023-03-25T02:31:54;2.63;;;1.40;;
34978;SDS011;21185;50.978;13.720;2023-03-25T02:42:53;2.65;;;1.20;;
34978;SDS011;21185;50.978;13.720;2023-03-25T02:48:04;3.83;;;1.05;;
34978;SDS011;21185;50.978;13.720;2023-03-25T02:58:19;4.38;;;1.13;;
34978;SDS011;21185;50.978;13.720;2023-03-25T03:03:23;3.05;;;1.35;;
34978;SDS011;21185;50.978;13.720;2023-03-25T03:08:40;4.53;;;1.23;;
34978;SDS011;21185;50.978;13.720;2023-03-25T03:24:31;2.30;;;0.90;;
34978;SDS011;21185;50.978;13.720;2023-03-25T03:29:41;1.45;;;0.80;;
34978;SDS011;21185;50.978;13.720;2023-03-25T03:34:48;0.98;;;0.70;;
34978;SDS011;21185;50.978;13.720;2023-03-25T03:39:53;1.33;;;0.77;;
34978;SDS011;21185;50.978;13.720;2023-03-25T03:45:02;1.00;;;0.90;;
34978;SDS011;21185;50.978;13.720;2023-03-25T03:50:15;1.20;;;0.73;;
34978;SDS011;21185;50.978;13.720;2023-03-25T03:55:31;0.77;;;0.73;;
34978;SDS011;21185;50.978;13.720;2023-03-25T04:00:57;2.40;;;0.68;;
34978;SDS011;21185;50.978;13.720;2023-03-25T04:06:08;1.42;;;0.68;;
34978;SDS011;21185;50.978;13.720;2023-03-25T04:11:22;1.13;;;0.73;;
34978;SDS011;21185;50.978;13.720;2023-03-25T04:16:28;2.35;;;0.70;;
34978;SDS011;21185;50.978;13.720;2023-03-25T04:21:36;0.60;;;0.60;;
34978;SDS011;21185;50.978;13.720;2023-03-25T04:26:38;1.25;;;0.70;;
34978;SDS011;21185;50.978;13.720;2023-03-25T04:31:40;0.50;;;0.50;;
34978;SDS011;21185;50.978;13.720;2023-03-25T04:36:50;3.75;;;1.05;;
34978;SDS011;21185;50.978;13.720;2023-03-25T04:41:53;1.02;;;0.70;;
34978;SDS011;21185;50.978;13.720;2023-03-25T04:46:55;0.80;;;0.55;;
34978;SDS011;21185;50.978;13.720;2023-03-25T04:51:56;4.85;;;0.93;;
34978;SDS011;21185;50.978;13.720;2023-03-25T04:56:59;1.98;;;0.60;;
34978;SDS011;21185;50.978;13.720;2023-03-25T05:02:02;0.30;;;0.30;;
34978;SDS011;21185;50.978;13.720;2023-03-25T05:07:08;2.08;;;0.50;;
34978;SDS011;21185;50.978;13.720;2023-03-25T05:12:10;0.40;;;0.40;;
34978;SDS011;21185;50.978;13.720;2023-03-25T05:17:12;2.97;;;0.40;;
34978;SDS011;21185;50.978;13.720;2023-03-25T05:22:14;0.55;;;0.50;;
34978;SDS011;21185;50.978;13.720;2023-03-25T05:27:16;0.40;;;0.40;;
34978;SDS011;21185;50.978;13.720;2023-03-25T05:32:20;0.88;;;0.40;;
34978;SDS011;21185;50.978;13.720;2023-03-25T05:37:23;0.60;;;0.60;;
34978;SDS011;21185;50.978;13.720;2023-03-25T05:42:25;0.40;;;0.40;;
34978;SDS011;21185;50.978;13.720;2023-03-25T05:47:28;0.40;;;0.40;;
34978;SDS011;21185;50.978;13.720;2023-03-25T05:52:30;0.47;;;0.47;;
34978;SDS011;21185;50.978;13.720;2023-03-25T05:57:32;0.28;;;0.25;;
34978;SDS011;21185;50.978;13.720;2023-03-25T06:02:34;0.30;;;0.30;;
34978;SDS011;21185;50.978;13.720;2023-03-25T06:07:43;0.47;;;0.47;;
34978;SDS011;21185;50.978;13.720;2023-03-25T06:12:50;0.75;;;0.35;;
34978;SDS011;21185;50.978;13.720;2023-03-25T06:17:55;3.35;;;0.60;;
34978;SDS011;21185;50.978;13.720;2023-03-25T06:22:57;1.98;;;0.52;;
34978;SDS011;21185;50.978;13.720;2023-03-25T06:27:59;0.77;;;0.77;;
34978;SDS011;21185;50.978;13.720;2023-03-25T06:33:04;0.82;;;0.50;;
34978;SDS011;21185;50.978;13.720;2023-03-25T06:38:07;1.33;;;0.55;;
34978;SDS011;21185;50.978;13.720;2023-03-25T06:43:32;0.85;;;0.63;;
34978;SDS011;21185;50.978;13.720;2023-03-25T06:48:50;1.55;;;0.77;;
34978;SDS011;21185;50.978;13.720;2023-03-25T06:53:52;0.63;;;0.40;;
34978;SDS011;21185;50.978;13.720;2023-03-25T06:58:54;0.40;;;0.40;;
34978;SDS011;21185;50.978;13.720;2023-03-25T07:03:55;0.90;;;0.60;;
34978;SDS011;21185;50.978;13.720;2023-03-25T07:08:57;1.70;;;0.45;;
34978;SDS011;21185;50.978;13.720;2023-03-25T07:13:59;3.40;;;0.70;;
34978;SDS011;21185;50.978;13.720;2023-03-25T07:19:01;2.40;;;0.70;;
34978;SDS011;21185;50.978;13.720;2023-03-25T07:24:04;0.30;;;0.30;;
34978;SDS011;21185;50.978;13.720;2023-03-25T07:29:06;0.65;;;0.60;;
34978;SDS011;21185;50.978;13.720;2023-03-25T07:34:08;2.05;;;0.60;;
34978;SDS011;21185;50.978;13.720;2023-03-25T07:39:10;3.20;;;0.77;;
34978;SDS011;21185;50.978;13.720;2023-03-25T07:44:13;0.68;;;0.47;;
34978;SDS011;21185;50.978;13.720;2023-03-25T07:49:18;0.88;;;0.57;;
34978;SDS011;21185;50.978;13.720;2023-03-25T07:54:20;4.13;;;0.50;;
34978;SDS011;21185;50.978;13.720;2023-03-25T07:59:25;3.03;;;0.40;;
34978;SDS011;21185;50.978;13.720;2023-03-25T08:04:31;2.97;;;0.68;;
34978;SDS011;21185;50.978;13.720;2023-03-25T08:09:33;2.38;;;0.98;;
34978;SDS011;21185;50.978;13.720;2023-03-25T08:14:35;3.83;;;0.60;;
34978;SDS011;21185;50.978;13.720;2023-03-25T08:19:37;2.78;;;0.65;;
34978;SDS011;21185;50.978;13.720;2023-03-25T08:24:39;8.60;;;1.10;;
34978;SDS011;21185;50.978;13.720;2023-03-25T08:29:42;2.65;;;0.68;;
34978;SDS011;21185;50.978;13.720;2023-03-25T08:34:45;0.52;;;0.52;;
34978;SDS011;21185;50.978;13.720;2023-03-25T08:39:47;0.52;;;0.40;;
34978;SDS011;21185;50.978;13.720;2023-03-25T08:44:51;0.65;;;0.50;;
34978;SDS011;21185;50.978;13.720;2023-03-25T08:49:53;0.73;;;0.50;;
34978;SDS011;21185;50.978;13.720;2023-03-25T08:54:55;0.82;;;0.57;;
34978;SDS011;21185;50.978;13.720;2023-03-25T08:59:57;0.50;;;0.50;;
34978;SDS011;21185;50.978;13.720;2023-03-25T09:04:59;0.30;;;0.30;;
34978;SDS011;21185;50.978;13.720;2023-03-25T09:10:01;0.90;;;0.50;;
34978;SDS011;21185;50.978;13.720;2023-03-25T09:15:04;0.50;;;0.40;;
34978;SDS011;21185;50.978;13.720;2023-03-25T09:20:07;1.38;;;0.47;;
34978;SDS011;21185;50.978;13.720;2023-03-25T09:25:12;0.50;;;0.50;;
34978;SDS011;21185;50.978;13.720;2023-03-25T09:30:14;1.13;;;0.52;;
34978;SDS011;21185;50.978;13.720;2023-03-25T09:35:16;2.80;;;0.43;;
34978;SDS011;21185;50.978;13.720;2023-03-25T09:40:19;0.47;;;0.47;;
34978;SDS011;21185;50.978;13.720;2023-03-25T09:50:34;1.42;;;0.60;;
34978;SDS011;21185;50.978;13.720;2023-03-25T09:55:39;0.60;;;0.50;;
34978;SDS011;21185;50.978;13.720;2023-03-25T10:00:43;3.28;;;0.90;;
34978;SDS011;21185;50.978;13.720;2023-03-25T10:11:10;6.03;;;0.82;;
34978;SDS011;21185;50.978;13.720;2023-03-25T10:16:19;0.70;;;0.52;;
34978;SDS011;21185;50.978;13.720;2023-03-25T10:26:59;0.70;;;0.55;;
34978;SDS011;21185;50.978;13.720;2023-03-25T10:32:06;0.55;;;0.50;;
34978;SDS011;21185;50.978;13.720;2023-03-25T10:43:11;1.00;;;0.53;;
34978;SDS011;21185;50.978;13.720;2023-03-25T10:48:26;0.70;;;0.50;;
34978;SDS011;21185;50.978;13.720;2023-03-25T10:53:29;1.83;;;0.60;;
34978;SDS011;21185;50.978;13.720;2023-03-25T10:58:31;0.88;;;0.40;;
34978;SDS011;21185;50.978;13.720;2023-03-25T11:03:38;0.40;;;0.40;;
34978;SDS011;21185;50.978;13.720;2023-03-25T11:14:10;0.65;;;0.40;;
34978;SDS011;21185;50.978;13.720;2023-03-25T11:24:33;1.25;;;0.63;;
34978;SDS011;21185;50.978;13.720;2023-03-25T11:29:40;1.50;;;0.60;;
34978;SDS011;21185;50.978;13.720;2023-03-25T11:34:46;0.85;;;0.50;;
34978;SDS011;21185;50.978;13.720;2023-03-25T11:39:49;2.55;;;0.50;;
34978;SDS011;21185;50.978;13.720;2023-03-25T11:44:56;0.30;;;0.30;;
34978;SDS011;21185;50.978;13.720;2023-03-25T11:50:00;2.00;;;0.50;;
34978;SDS011;21185;50.978;13.720;2023-03-25T11:55:02;0.65;;;0.43;;
34978;SDS011;21185;50.978;13.720;2023-03-25T12:00:16;0.98;;;0.65;;
34978;SDS011;21185;50.978;13.720;2023-03-25T12:05:37;0.30;;;0.30;;
34978;SDS011;21185;50.978;13.720;2023-03-25T12:10:44;0.50;;;0.40;;
34978;SDS011;21185;50.978;13.720;2023-03-25T12:21:07;1.10;;;0.70;;
34978;SDS011;21185;50.978;13.720;2023-03-25T12:37:33;1.08;;;0.30;;
34978;SDS011;21185;50.978;13.720;2023-03-25T12:42:47;0.82;;;0.50;;
34978;SDS011;21185;50.978;13.720;2023-03-25T12:47:59;5.63;;;0.60;;
34978;SDS011;21185;50.978;13.720;2023-03-25T12:53:30;0.20;;;0.20;;
34978;SDS011;21185;50.978;13.720;2023-03-25T12:59:26;0.30;;;0.30;;
34978;SDS011;21185;50.978;13.720;2023-03-25T13:09:18;0.32;;;0.32;;
34978;SDS011;21185;50.978;13.720;2023-03-25T13:14:38;1.08;;;0.50;;
34978;SDS011;21185;50.978;13.720;2023-03-25T13:20:01;1.65;;;0.40;;
34978;SDS011;21185;50.978;13.720;2023-03-25T13:25:26;1.17;;;0.50;;
34978;SDS011;21185;50.978;13.720;2023-03-25T13:30:43;0.60;;;0.30;;
34978;SDS011;21185;50.978;13.720;2023-03-25T13:35:52;0.57;;;0.40;;
34978;SDS011;21185;50.978;13.720;2023-03-25T13:41:13;0.50;;;0.50;;
34978;SDS011;21185;50.978;13.720;2023-03-25T13:46:28;0.63;;;0.40;;
34978;SDS011;21185;50.978;13.720;2023-03-25T13:51:36;4.95;;;0.60;;
34978;SDS011;21185;50.978;13.720;2023-03-25T13:56:49;1.00;;;0.57;;
34978;SDS011;21185;50.978;13.720;2023-03-25T14:13:15;0.80;;;0.50;;
34978;SDS011;21185;50.978;13.720;2023-03-25T14:18:22;4.55;;;0.47;;
34978;SDS011;21185;50.978;13.720;2023-03-25T14:23:25;4.47;;;0.80;;
34978;SDS011;21185;50.978;13.720;2023-03-25T14:28:34;1.10;;;0.40;;
34978;SDS011;21185;50.978;13.720;2023-03-25T14:39:07;1.23;;;0.65;;
34978;SDS011;21185;50.978;13.720;2023-03-25T14:44:17;0.28;;;0.22;;
34978;SDS011;21185;50.978;13.720;2023-03-25T14:49:20;2.03;;;0.40;;
34978;SDS011;21185;50.978;13.720;2023-03-25T14:59:38;2.37;;;0.50;;
34978;SDS011;21185;50.978;13.720;2023-03-25T15:04:43;0.75;;;0.30;;
34978;SDS011;21185;50.978;13.720;2023-03-25T15:09:50;1.38;;;0.40;;
34978;SDS011;21185;50.978;13.720;2023-03-25T15:14:55;2.83;;;0.30;;
34978;SDS011;21185;50.978;13.720;2023-03-25T15:25:15;0.75;;;0.38;;
34978;SDS011;21185;50.978;13.720;2023-03-25T15:30:27;2.75;;;0.70;;
34978;SDS011;21185;50.978;13.720;2023-03-25T15:35:34;0.52;;;0.40;;
34978;SDS011;21185;50.978;13.720;2023-03-25T15:51:31;1.08;;;0.50;;
34978;SDS011;21185;50.978;13.720;2023-03-25T15:56:41;0.50;;;0.50;;
34978;SDS011;21185;50.978;13.720;2023-03-25T16:01:47;0.32;;;0.30;;
34978;SDS011;21185;50.978;13.720;2023-03-25T16:06:52;1.35;;;0.50;;
34978;SDS011;21185;50.978;13.720;2023-03-25T16:11:58;0.90;;;0.85;;
34978;SDS011;21185;50.978;13.720;2023-03-25T16:17:02;1.20;;;0.60;;
34978;SDS011;21185;50.978;13.720;2023-03-25T16:22:15;3.60;;;0.63;;
34978;SDS011;21185;50.978;13.720;2023-03-25T16:27:22;1.25;;;0.60;;
34978;SDS011;21185;50.978;13.720;2023-03-25T16:32:32;2.42;;;0.40;;
34978;SDS011;21185;50.978;13.720;2023-03-25T16:37:36;1.95;;;0.60;;
34978;SDS011;21185;50.978;13.720;2023-03-25T16:42:40;1.48;;;0.75;;
34978;SDS011;21185;50.978;13.720;2023-03-25T16:47:42;1.52;;;0.75;;
34978;SDS011;21185;50.978;13.720;2023-03-25T16:52:48;1.52;;;0.50;;
34978;SDS011;21185;50.978;13.720;2023-03-25T16:57:51;2.03;;;0.55;;
34978;SDS011;21185;50.978;13.720;2023-03-25T17:02:53;1.30;;;0.77;;
34978;SDS011;21185;50.978;13.720;2023-03-25T17:08:03;1.90;;;0.90;;
34978;SDS011;21185;50.978;13.720;2023-03-25T17:13:13;1.55;;;0.60;;
34978;SDS011;21185;50.978;13.720;2023-03-25T17:18:21;3.03;;;0.52;;
34978;SDS011;21185;50.978;13.720;2023-03-25T17:23:35;2.67;;;0.70;;
34978;SDS011;21185;50.978;13.720;2023-03-25T17:34:00;6.82;;;1.10;;
34978;SDS011;21185;50.978;13.720;2023-03-25T17:39:31;2.08;;;1.20;;
34978;SDS011;21185;50.978;13.720;2023-03-25T17:44:36;3.85;;;0.98;;
34978;SDS011;21185;50.978;13.720;2023-03-25T17:49:40;1.70;;;1.13;;
34978;SDS011;21185;50.978;13.720;2023-03-25T17:54:42;4.00;;;0.85;;
34978;SDS011;21185;50.978;13.720;2023-03-25T17:59:44;1.48;;;0.80;;
34978;SDS011;21185;50.978;13.720;2023-03-25T18:04:47;1.63;;;0.98;;
34978;SDS011;21185;50.978;13.720;2023-03-25T18:09:49;1.02;;;0.80;;
34978;SDS011;21185;50.978;13.720;2023-03-25T18:14:51;0.98;;;0.70;;
34978;SDS011;21185;50.978;13.720;2023-03-25T18:19:52;1.90;;;1.00;;
34978;SDS011;21185;50.978;13.720;2023-03-25T18:24:57;2.38;;;1.60;;
34978;SDS011;21185;50.978;13.720;2023-03-25T18:29:59;2.00;;;1.10;;
34978;SDS011;21185;50.978;13.720;2023-03-25T18:35:01;1.65;;;0.90;;
34978;SDS011;21185;50.978;13.720;2023-03-25T18:40:21;1.00;;;0.90;;
34978;SDS011;21185;50.978;13.720;2023-03-25T18:45:25;2.55;;;1.33;;
34978;SDS011;21185;50.978;13.720;2023-03-25T18:50:32;4.00;;;1.80;;
34978;SDS011;21185;50.978;13.720;2023-03-25T18:55:35;1.27;;;0.82;;
34978;SDS011;21185;50.978;13.720;2023-03-25T19:00:38;2.17;;;0.98;;
34978;SDS011;21185;50.978;13.720;2023-03-25T19:05:41;0.70;;;0.60;;
34978;SDS011;21185;50.978;13.720;2023-03-25T19:10:43;0.93;;;0.70;;
34978;SDS011;21185;50.978;13.720;2023-03-25T19:15:46;1.92;;;0.73;;
34978;SDS011;21185;50.978;13.720;2023-03-25T19:20:48;1.35;;;0.82;;
34978;SDS011;21185;50.978;13.720;2023-03-25T19:25:51;3.53;;;1.80;;
34978;SDS011;21185;50.978;13.720;2023-03-25T19:30:57;1.02;;;0.70;;
34978;SDS011;21185;50.978;13.720;2023-03-25T19:36:00;1.35;;;0.73;;
34978;SDS011;21185;50.978;13.720;2023-03-25T19:41:08;1.55;;;0.70;;
34978;SDS011;21185;50.978;13.720;2023-03-25T19:46:11;1.38;;;0.98;;
34978;SDS011;21185;50.978;13.720;2023-03-25T19:51:13;1.75;;;0.65;;
34978;SDS011;21185;50.978;13.720;2023-03-25T19:56:15;0.90;;;0.60;;
34978;SDS011;21185;50.978;13.720;2023-03-25T20:01:17;2.95;;;0.55;;
34978;SDS011;21185;50.978;13.720;2023-03-25T20:06:19;1.50;;;0.50;;
34978;SDS011;21185;50.978;13.720;2023-03-25T20:11:21;3.40;;;0.70;;
34978;SDS011;21185;50.978;13.720;2023-03-25T20:16:23;1.38;;;0.50;;
34978;SDS011;21185;50.978;13.720;2023-03-25T20:21:26;1.55;;;0.68;;
34978;SDS011;21185;50.978;13.720;2023-03-25T20:26:28;2.00;;;0.82;;
34978;SDS011;21185;50.978;13.720;2023-03-25T20:31:32;0.43;;;0.40;;
34978;SDS011;21185;50.978;13.720;2023-03-25T20:36:34;4.07;;;0.60;;
34978;SDS011;21185;50.978;13.720;2023-03-25T20:41:36;7.13;;;0.50;;
34978;SDS011;21185;50.978;13.720;2023-03-25T20:46:38;0.60;;;0.50;;
34978;SDS011;21185;50.978;13.720;2023-03-25T20:51:41;2.03;;;0.65;;
34978;SDS011;21185;50.978;13.720;2023-03-25T20:56:43;1.10;;;0.57;;
34978;SDS011;21185;50.978;13.720;2023-03-25T21:01:47;3.10;;;0.90;;
34978;SDS011;21185;50.978;13.720;2023-03-25T21:06:54;2.30;;;0.70;;
34978;SDS011;21185;50.978;13.720;2023-03-25T21:11:56;0.70;;;0.68;;
34978;SDS011;21185;50.978;13.720;2023-03-25T21:16:58;1.67;;;0.80;;
34978;SDS011;21185;50.978;13.720;2023-03-25T21:22:00;1.38;;;0.60;;
34978;SDS011;21185;50.978;13.720;2023-03-25T21:27:05;5.15;;;0.90;;
34978;SDS011;21185;50.978;13.720;2023-03-25T21:32:09;2.27;;;0.80;;
34978;SDS011;21185;50.978;13.720;2023-03-25T21:37:14;1.48;;;0.80;;
34978;SDS011;21185;50.978;13.720;2023-03-25T21:42:16;1.50;;;0.80;;
34978;SDS011;21185;50.978;13.720;2023-03-25T21:47:18;6.72;;;1.33;;
34978;SDS011;21185;50.978;13.720;2023-03-25T21:52:20;5.68;;;0.80;;
34978;SDS011;21185;50.978;13.720;2023-03-25T21:57:22;3.13;;;1.00;;
34978;SDS011;21185;50.978;13.720;2023-03-25T22:02:24;0.57;;;0.55;;
34978;SDS011;21185;50.978;13.720;2023-03-25T22:07:29;1.20;;;0.80;;
34978;SDS011;21185;50.978;13.720;2023-03-25T22:12:31;2.50;;;0.77;;
34978;SDS011;21185;50.978;13.720;2023-03-25T22:17:33;8.40;;;1.30;;
34978;SDS011;21185;50.978;13.720;2023-03-25T22:22:35;3.20;;;0.80;;
34978;SDS011;21185;50.978;13.720;2023-03-25T22:27:37;1.77;;;0.98;;
34978;SDS011;21185;50.978;13.720;2023-03-25T22:32:39;5.93;;;1.20;;
34978;SDS011;21185;50.978;13.720;2023-03-25T22:37:44;2.75;;;1.13;;
34978;SDS011;21185;50.978;13.720;2023-03-25T22:42:46;2.88;;;0.95;;
34978;SDS011;21185;50.978;13.720;2023-03-25T22:47:48;1.00;;;0.68;;
34978;SDS011;21185;50.978;13.720;2023-03-25T22:52:50;2.80;;;0.75;;
34978;SDS011;21185;50.978;13.720;2023-03-25T22:57:52;3.72;;;0.93;;
34978;SDS011;21185;50.978;13.720;2023-03-25T23:02:55;6.47;;;0.80;;
34978;SDS011;21185;50.978;13.720;2023-03-25T23:07:57;4.18;;;0.90;;
34978;SDS011;21185;50.978;13.720;2023-03-25T23:12:59;6.55;;;0.73;;
34978;SDS011;21185;50.978;13.720;2023-03-25T23:18:01;2.05;;;0.82;;
34978;SDS011;21185;50.978;13.720;2023-03-25T23:23:04;1.33;;;0.80;;
34978;SDS011;21185;50.978;13.720;2023-03-25T23:28:06;2.72;;;1.00;;
34978;SDS011;21185;50.978;13.720;2023-03-25T23:33:10;4.40;;;0.90;;
34978;SDS011;21185;50.978;13.720;2023-03-25T23:38:12;0.90;;;0.80;;
34978;SDS011;21185;50.978;13.720;2023-03-25T23:43:14;3.08;;;0.93;;
34978;SDS011;21185;50.978;13.720;2023-03-25T23:48:16;2.80;;;0.60;;
34978;SDS011;21185;50.978;13.720;2023-03-25T23:53:19;1.00;;;0.77;;
34978;SDS011;21185;50.978;13.720;2023-03-25T23:58:22;0.98;;;0.60;;
